Burnt Water, Arizona
Current Conditions -  °F | °C
As of 9:53 AM on Friday 28 Nov 2014 (Local Time) from KGUP Reporting Station
Clear Clear  
Wind Chill: 40°   Ceiling: Unl
Heat Index: 40°   Visibility: 10mi
Dew Point: 13°   Wind: 0mph
Humidity: 33%   Direction: NA
Pressure: 30.3"   Gusts: NA
Location:  35.3778°N, 109.355°W
Report Text: KGUP 281653Z AUTO 00000KT 10SM CLR 04/M11 A3030 RMK AO2 SLP263 T00441106
Loading
Personal Weather Stations






























Interactive Weather Map New forecast layout! Learn more

10-Day Weather Forecast

Advertisements
Track Severe Weather on mobile